createdAt,value
2023-06-07T00:00:43.083Z,37.32
2023-06-07T00:01:43.131Z,37.32
2023-06-07T00:02:44.686Z,37.34
2023-06-07T00:03:43.261Z,37.33
2023-06-07T00:04:43.316Z,37.33
2023-06-07T00:05:43.166Z,37.37
2023-06-07T00:06:43.263Z,37.34
2023-06-07T00:07:43.295Z,37.33
2023-06-07T00:08:43.277Z,37.36
2023-06-07T00:09:43.288Z,37.35
2023-06-07T00:10:43.315Z,37.36
2023-06-07T00:11:43.300Z,37.35
2023-06-07T00:12:43.494Z,37.38
2023-06-07T00:13:43.523Z,37.35
2023-06-07T00:14:43.538Z,37.35
2023-06-07T00:15:43.546Z,37.36
2023-06-07T00:16:43.531Z,37.37
2023-06-07T00:17:43.621Z,37.38
2023-06-07T00:18:43.539Z,37.36
2023-06-07T00:19:43.560Z,37.39
2023-06-07T00:20:43.565Z,37.40
2023-06-07T00:21:43.573Z,37.39
2023-06-07T00:22:43.587Z,37.39
2023-06-07T00:23:43.630Z,37.39
2023-06-07T00:24:43.709Z,37.40
2023-06-07T00:25:44.038Z,37.39
2023-06-07T00:26:43.890Z,37.43
2023-06-07T00:27:43.976Z,37.40
2023-06-07T00:28:44.093Z,37.41
2023-06-07T00:29:44.207Z,37.39
2023-06-07T00:30:44.335Z,37.40
2023-06-07T00:31:44.327Z,37.41
2023-06-07T00:32:44.386Z,37.43
2023-06-07T00:33:44.339Z,37.43
2023-06-07T00:34:44.297Z,37.42
2023-06-07T00:35:44.365Z,37.45
2023-06-07T00:36:44.359Z,37.42
2023-06-07T00:37:44.372Z,37.43
2023-06-07T00:38:44.373Z,37.45
2023-06-07T00:39:44.416Z,37.44
2023-06-07T00:40:44.426Z,37.46
2023-06-07T00:41:44.418Z,37.46
2023-06-07T00:42:44.505Z,37.47
2023-06-07T00:43:44.465Z,37.48
2023-06-07T00:44:44.467Z,37.47
2023-06-07T00:45:44.472Z,37.46
2023-06-07T00:46:44.474Z,37.44
2023-06-07T00:47:44.570Z,37.48
2023-06-07T00:48:44.629Z,37.47
2023-06-07T00:49:44.538Z,37.49
2023-06-07T00:50:44.563Z,37.48
2023-06-07T00:51:44.591Z,37.49
2023-06-07T00:52:44.624Z,37.50
2023-06-07T00:53:44.635Z,37.48
2023-06-07T00:54:44.608Z,37.49
2023-06-07T00:55:44.687Z,37.50
2023-06-07T00:56:44.665Z,37.51
2023-06-07T00:57:44.714Z,37.51
2023-06-07T00:58:44.705Z,37.51
2023-06-07T00:59:44.718Z,37.50
2023-06-07T01:00:44.737Z,37.54
2023-06-07T01:01:44.816Z,37.53
2023-06-07T01:02:44.879Z,37.51
2023-06-07T01:03:44.882Z,37.50
2023-06-07T01:04:44.817Z,37.52
2023-06-07T01:05:44.867Z,37.53
2023-06-07T01:06:44.906Z,37.54
2023-06-07T01:07:44.927Z,37.53
2023-06-07T01:08:44.948Z,37.56
2023-06-07T01:09:44.997Z,37.55
2023-06-07T01:10:44.992Z,37.54
2023-06-07T01:11:45.002Z,37.56
2023-06-07T01:12:45.033Z,37.56
2023-06-07T01:13:45.046Z,37.58
2023-06-07T01:14:45.086Z,37.56
2023-06-07T01:15:45.089Z,37.56
2023-06-07T01:16:45.180Z,37.57
2023-06-07T01:17:45.166Z,37.60
2023-06-07T01:18:45.176Z,37.58
2023-06-07T01:19:45.152Z,37.58
2023-06-07T01:20:45.214Z,37.58
2023-06-07T01:21:45.337Z,37.59
2023-06-07T01:22:45.245Z,37.59
2023-06-07T01:23:45.351Z,37.58
2023-06-07T01:24:45.301Z,37.59
2023-06-07T01:25:45.287Z,37.60
2023-06-07T01:26:45.319Z,37.59
2023-06-07T01:27:45.348Z,37.58
2023-06-07T01:28:45.362Z,37.59
2023-06-07T01:29:45.391Z,37.61
2023-06-07T01:30:45.405Z,37.58
2023-06-07T01:31:45.487Z,37.60
2023-06-07T01:32:45.512Z,37.57
2023-06-07T01:33:45.478Z,37.60
2023-06-07T01:34:45.558Z,37.62
2023-06-07T01:35:45.538Z,37.60
2023-06-07T01:36:45.584Z,37.61
2023-06-07T01:37:45.536Z,37.63
2023-06-07T01:38:45.587Z,37.63
2023-06-07T01:39:45.604Z,37.63
2023-06-07T01:40:45.640Z,37.63
2023-06-07T01:41:45.681Z,37.62
2023-06-07T01:42:45.712Z,37.63
2023-06-07T01:43:45.755Z,37.64
2023-06-07T01:44:45.780Z,37.64
2023-06-07T01:45:45.812Z,37.65
2023-06-07T01:46:45.801Z,37.63
2023-06-07T01:47:45.907Z,37.66
2023-06-07T01:48:45.869Z,37.66
2023-06-07T01:49:46.194Z,37.68
2023-06-07T01:50:45.896Z,37.68
2023-06-07T01:51:45.990Z,37.67
2023-06-07T01:52:45.991Z,37.68
2023-06-07T01:53:46.029Z,37.66
2023-06-07T01:54:46.057Z,37.63
2023-06-07T01:55:46.056Z,37.68
2023-06-07T01:56:46.133Z,37.65
2023-06-07T01:57:46.137Z,37.64
2023-06-07T01:58:46.163Z,37.68
2023-06-07T01:59:46.192Z,37.65
2023-06-07T02:00:46.254Z,37.65
2023-06-07T02:01:46.287Z,37.68
2023-06-07T02:02:46.366Z,37.69
2023-06-07T02:03:46.365Z,37.70
2023-06-07T02:04:46.393Z,37.67
2023-06-07T02:05:46.386Z,37.66
2023-06-07T02:06:46.403Z,37.71
2023-06-07T02:07:46.439Z,37.68
2023-06-07T02:08:46.506Z,37.70
2023-06-07T02:09:46.527Z,37.70
2023-06-07T02:10:46.523Z,37.72
2023-06-07T02:11:46.584Z,37.71
2023-06-07T02:12:46.595Z,37.73
2023-06-07T02:13:46.632Z,37.73
2023-06-07T02:14:46.631Z,37.73
2023-06-07T02:15:47.002Z,37.71
2023-06-07T02:16:46.754Z,37.72
2023-06-07T02:17:46.811Z,37.73
2023-06-07T02:18:46.781Z,37.74
2023-06-07T02:19:46.839Z,37.74
2023-06-07T02:20:46.838Z,37.71
2023-06-07T02:21:46.916Z,37.75
2023-06-07T02:22:46.897Z,37.75
2023-06-07T02:23:47.269Z,37.76
2023-06-07T02:24:46.968Z,37.75
2023-06-07T02:25:47.032Z,37.74
2023-06-07T02:26:47.075Z,37.76
2023-06-07T02:27:47.054Z,37.76
2023-06-07T02:28:47.082Z,37.76
2023-06-07T02:29:47.142Z,37.78
2023-06-07T02:30:47.151Z,37.78
2023-06-07T02:31:47.472Z,37.75
2023-06-07T02:32:47.241Z,37.76
2023-06-07T02:33:47.308Z,37.78
2023-06-07T02:34:47.300Z,37.79
2023-06-07T02:35:47.319Z,37.79
2023-06-07T02:36:47.404Z,37.78
2023-06-07T02:37:47.360Z,37.78
2023-06-07T02:38:47.442Z,37.79
2023-06-07T02:39:47.504Z,37.79
2023-06-07T02:40:47.504Z,37.80
2023-06-07T02:41:47.484Z,37.79
2023-06-07T02:42:47.562Z,37.82
2023-06-07T02:43:47.578Z,37.79
2023-06-07T02:44:47.576Z,37.80
2023-06-07T02:45:47.626Z,37.80
2023-06-07T02:46:47.671Z,37.81
2023-06-07T02:47:47.757Z,37.80
2023-06-07T02:48:47.752Z,37.80
2023-06-07T02:49:47.766Z,37.80
2023-06-07T02:50:47.760Z,37.80
2023-06-07T02:51:47.785Z,37.82
2023-06-07T02:52:47.858Z,37.83
2023-06-07T02:53:47.886Z,37.83
2023-06-07T02:54:47.913Z,37.82
2023-06-07T02:55:47.937Z,37.84
2023-06-07T02:56:47.995Z,37.83
2023-06-07T02:57:48.000Z,37.85
2023-06-07T02:58:48.054Z,37.85
2023-06-07T02:59:48.082Z,37.85
2023-06-07T03:00:48.168Z,37.85
2023-06-07T03:01:48.148Z,37.87
2023-06-07T03:02:48.322Z,37.86
2023-06-07T03:03:48.295Z,37.86
2023-06-07T03:04:48.267Z,37.88
2023-06-07T03:05:48.259Z,37.85
2023-06-07T03:06:48.340Z,37.84
2023-06-07T03:07:48.348Z,37.87
2023-06-07T03:08:48.371Z,37.86
2023-06-07T03:09:48.388Z,37.88
2023-06-07T03:10:48.454Z,37.90
2023-06-07T03:11:48.490Z,37.88
2023-06-07T03:12:48.534Z,37.90
2023-06-07T03:13:48.572Z,37.87
2023-06-07T03:14:49.140Z,37.88
2023-06-07T03:15:48.705Z,37.90
2023-06-07T03:16:48.659Z,37.90
2023-06-07T03:17:48.818Z,37.91
2023-06-07T03:18:48.727Z,37.90
2023-06-07T03:19:48.838Z,37.89
2023-06-07T03:20:48.988Z,37.88
2023-06-07T03:21:48.910Z,37.89
2023-06-07T03:22:48.892Z,37.92
2023-06-07T03:23:49.036Z,37.89
2023-06-07T03:24:49.017Z,37.91
2023-06-07T03:25:49.069Z,37.90
2023-06-07T03:26:49.076Z,37.89
2023-06-07T03:27:49.109Z,37.89
2023-06-07T03:28:49.134Z,37.92
2023-06-07T03:29:49.190Z,37.90
2023-06-07T03:30:49.279Z,37.89
2023-06-07T03:31:49.240Z,37.90
2023-06-07T03:32:49.328Z,37.92
2023-06-07T03:33:49.353Z,37.92
2023-06-07T03:34:49.430Z,37.91
2023-06-07T03:35:49.445Z,37.91
2023-06-07T03:36:49.419Z,37.94
2023-06-07T03:37:49.531Z,37.91
2023-06-07T03:38:49.576Z,37.89
2023-06-07T03:39:49.591Z,37.94
2023-06-07T03:40:49.615Z,37.94
2023-06-07T03:41:49.640Z,37.94
2023-06-07T03:42:49.663Z,37.91
2023-06-07T03:43:49.717Z,37.90
2023-06-07T03:44:49.728Z,37.91
2023-06-07T03:45:49.816Z,37.92
2023-06-07T03:46:49.824Z,37.89
2023-06-07T03:47:49.941Z,37.92
2023-06-07T03:48:52.777Z,37.91
2023-06-07T03:49:49.875Z,37.93
2023-06-07T03:50:49.875Z,37.91
2023-06-07T03:51:49.889Z,37.94
2023-06-07T03:52:49.880Z,37.92
2023-06-07T03:53:49.831Z,37.95
2023-06-07T03:54:49.873Z,37.90
2023-06-07T03:55:49.845Z,37.91
2023-06-07T03:56:49.812Z,37.92
2023-06-07T03:57:49.821Z,37.93
2023-06-07T03:58:49.802Z,37.91
2023-06-07T03:59:49.807Z,37.92
2023-06-07T04:00:49.805Z,37.92
2023-06-07T04:01:49.770Z,37.91
2023-06-07T04:02:49.845Z,37.83
2023-06-07T04:03:49.919Z,37.88
2023-06-07T04:04:50.690Z,37.80
2023-06-07T04:05:49.753Z,37.67
2023-06-07T04:06:49.793Z,37.64
2023-06-07T04:07:50.190Z,37.53
2023-06-07T04:08:49.735Z,37.54
2023-06-07T04:09:49.735Z,37.52
2023-06-07T04:10:49.768Z,37.39
2023-06-07T04:11:49.719Z,37.27
2023-06-07T04:12:49.737Z,37.17
2023-06-07T04:13:49.687Z,37.09
2023-06-07T04:14:49.714Z,36.98
2023-06-07T04:15:49.702Z,36.89
2023-06-07T04:16:49.761Z,36.92
2023-06-07T04:17:49.755Z,36.85
2023-06-07T04:18:49.698Z,36.80
2023-06-07T04:19:51.780Z,36.74
2023-06-07T04:20:49.678Z,36.76
2023-06-07T04:21:49.640Z,36.79
2023-06-07T04:22:49.678Z,36.79
2023-06-07T04:23:49.720Z,36.73
2023-06-07T04:24:49.633Z,36.63
2023-06-07T04:25:49.648Z,36.60
2023-06-07T04:26:49.819Z,36.59
2023-06-07T04:27:49.717Z,36.53
2023-06-07T04:28:49.731Z,36.46
2023-06-07T04:29:49.735Z,36.50
2023-06-07T04:30:49.838Z,36.46
2023-06-07T04:31:49.877Z,36.52
2023-06-07T04:32:49.902Z,36.52
2023-06-07T04:33:49.890Z,36.57
2023-06-07T04:34:49.912Z,36.54
2023-06-07T04:35:49.936Z,36.54
2023-06-07T04:36:49.943Z,36.54
2023-06-07T04:37:49.998Z,36.58
2023-06-07T04:38:58.454Z,36.55
2023-06-07T04:39:51.018Z,36.58
2023-06-07T04:40:49.987Z,36.57
2023-06-07T04:41:50.049Z,36.58
2023-06-07T04:42:50.005Z,36.57
2023-06-07T04:43:50.001Z,36.52
2023-06-07T04:44:49.974Z,36.49
2023-06-07T04:45:50.003Z,36.48
2023-06-07T04:46:49.954Z,36.45
2023-06-07T04:47:49.981Z,36.43
2023-06-07T04:48:49.978Z,36.44
2023-06-07T04:49:49.957Z,36.43
2023-06-07T04:50:49.957Z,36.44
2023-06-07T04:51:50.002Z,36.39
2023-06-07T04:52:49.954Z,36.37
2023-06-07T04:53:49.922Z,36.35
2023-06-07T04:54:49.911Z,36.35
2023-06-07T04:55:49.883Z,36.29
2023-06-07T04:56:49.866Z,36.28
2023-06-07T04:57:49.907Z,36.23
2023-06-07T04:58:49.893Z,36.22
2023-06-07T04:59:50.018Z,36.21
2023-06-07T05:00:49.934Z,36.23
2023-06-07T05:01:49.965Z,36.19
2023-06-07T05:02:50.215Z,36.24
2023-06-07T05:03:50.108Z,36.26
2023-06-07T05:04:50.708Z,36.25
2023-06-07T05:05:50.243Z,36.25
2023-06-07T05:06:50.223Z,36.25
2023-06-07T05:07:50.272Z,36.25
2023-06-07T05:08:50.306Z,36.20
2023-06-07T05:09:50.423Z,36.19
2023-06-07T05:10:50.412Z,36.15
2023-06-07T05:11:50.570Z,36.14
2023-06-07T05:12:50.485Z,36.15
2023-06-07T05:13:50.628Z,36.12
2023-06-07T05:14:50.660Z,36.10
2023-06-07T05:15:50.733Z,36.07
2023-06-07T05:16:50.761Z,36.06
2023-06-07T05:17:50.888Z,36.07
2023-06-07T05:18:50.869Z,36.03
2023-06-07T05:19:50.944Z,36.04
2023-06-07T05:20:50.985Z,36.01
2023-06-07T05:21:51.024Z,35.98
2023-06-07T05:22:51.080Z,35.89
2023-06-07T05:23:51.195Z,35.88
2023-06-07T05:24:51.140Z,35.94
2023-06-07T05:25:51.194Z,35.95
2023-06-07T05:26:51.249Z,35.92
2023-06-07T05:28:03.680Z,35.84
2023-06-07T05:28:52.275Z,35.81
2023-06-07T05:29:51.254Z,35.78
2023-06-07T05:30:51.377Z,35.64
2023-06-07T05:31:51.248Z,35.38
2023-06-07T05:32:51.269Z,35.47
2023-06-07T05:33:51.196Z,35.61
2023-06-07T05:34:51.196Z,35.79
2023-06-07T05:35:51.202Z,35.93
2023-06-07T05:36:51.207Z,36.09
2023-06-07T05:37:51.199Z,36.11
2023-06-07T05:38:51.225Z,36.01
2023-06-07T05:39:51.285Z,35.81
2023-06-07T05:40:51.142Z,36.15
2023-06-07T05:41:51.249Z,36.02
2023-06-07T05:42:51.240Z,36.07
2023-06-07T05:43:51.302Z,36.11
2023-06-07T05:44:51.354Z,35.99
2023-06-07T05:45:51.379Z,35.81
2023-06-07T05:46:51.518Z,35.59
2023-06-07T05:47:51.592Z,35.73
2023-06-07T05:48:51.639Z,35.77
2023-06-07T05:49:51.608Z,35.85
2023-06-07T05:50:51.710Z,35.90
2023-06-07T05:51:51.686Z,35.88
2023-06-07T05:52:51.785Z,35.85
2023-06-07T05:53:51.838Z,36.07
2023-06-07T05:54:51.819Z,35.96
2023-06-07T05:55:51.858Z,36.02
2023-06-07T05:56:54.284Z,36.11
2023-06-07T05:57:52.056Z,36.08
2023-06-07T05:58:52.054Z,36.21
2023-06-07T05:59:52.109Z,36.15
2023-06-07T06:00:52.116Z,36.18
2023-06-07T06:01:52.186Z,36.18
2023-06-07T06:02:52.275Z,36.34
2023-06-07T06:03:52.215Z,36.47
2023-06-07T06:04:52.280Z,36.40
2023-06-07T06:05:52.310Z,36.37
2023-06-07T06:06:52.761Z,36.35
2023-06-07T06:07:52.316Z,36.35
2023-06-07T06:08:52.362Z,36.46
2023-06-07T06:09:52.380Z,36.46
2023-06-07T06:10:52.425Z,36.48
2023-06-07T06:11:52.431Z,36.68
2023-06-07T06:12:52.481Z,36.55
2023-06-07T06:13:52.495Z,36.60
2023-06-07T06:14:52.787Z,36.65
2023-06-07T06:15:52.590Z,36.65
2023-06-07T06:16:52.562Z,36.75
2023-06-07T06:17:52.787Z,36.68
2023-06-07T06:18:52.611Z,36.69
2023-06-07T06:19:52.675Z,36.71
2023-06-07T06:20:52.623Z,36.71
2023-06-07T06:21:52.665Z,36.78
2023-06-07T06:22:52.704Z,36.74
2023-06-07T06:23:54.336Z,36.75
2023-06-07T06:24:52.764Z,36.81
2023-06-07T06:25:52.765Z,36.81
2023-06-07T06:26:52.774Z,36.76
2023-06-07T06:27:53.247Z,36.85
2023-06-07T06:28:53.257Z,36.84
2023-06-07T06:29:53.848Z,36.89
2023-06-07T06:30:53.030Z,36.95
2023-06-07T06:31:52.938Z,36.83
2023-06-07T06:32:53.642Z,36.81
2023-06-07T06:33:52.983Z,36.89
2023-06-07T06:34:52.993Z,36.99
2023-06-07T06:35:53.105Z,38.90
2023-06-07T06:36:53.054Z,37.26
2023-06-07T06:37:53.184Z,36.75
2023-06-07T06:38:53.124Z,36.51
2023-06-07T06:39:53.208Z,36.45
2023-06-07T06:40:53.226Z,36.41
2023-06-07T06:41:53.136Z,36.23
2023-06-07T06:42:53.179Z,36.16
2023-06-07T06:43:53.247Z,36.12
2023-06-07T06:44:53.258Z,35.91
2023-06-07T06:45:53.249Z,35.96
2023-06-07T06:46:53.741Z,35.88
2023-06-07T06:47:53.344Z,35.91
2023-06-07T06:49:03.084Z,35.92
2023-06-07T06:49:54.381Z,35.89
2023-06-07T06:50:53.381Z,36.00
2023-06-07T06:51:53.278Z,35.94
2023-06-07T06:52:53.293Z,35.98
2023-06-07T06:53:53.297Z,36.10
2023-06-07T06:54:53.263Z,36.12
2023-06-07T06:55:53.250Z,36.21
2023-06-07T06:56:53.761Z,36.16
2023-06-07T06:57:53.250Z,36.32
2023-06-07T06:58:53.229Z,36.39
2023-06-07T06:59:53.245Z,36.31
2023-06-07T07:00:53.245Z,36.25
2023-06-07T07:01:53.425Z,36.40
2023-06-07T07:02:53.306Z,36.38
2023-06-07T07:03:53.315Z,36.30
2023-06-07T07:04:53.221Z,36.35
2023-06-07T07:05:53.203Z,36.43
2023-06-07T07:06:53.374Z,36.41
2023-06-07T07:07:53.171Z,36.52
2023-06-07T07:08:53.455Z,36.60
2023-06-07T07:09:53.165Z,36.43
2023-06-07T07:10:53.196Z,36.49
2023-06-07T07:11:53.395Z,36.46
2023-06-07T07:12:53.332Z,36.74
2023-06-07T07:13:53.124Z,36.78
2023-06-07T07:14:53.204Z,37.04
2023-06-07T07:15:53.132Z,36.74
2023-06-07T07:16:53.132Z,36.72
2023-06-07T07:17:53.149Z,36.51
2023-06-07T07:18:53.137Z,36.58
2023-06-07T07:19:53.098Z,36.58
2023-06-07T07:20:53.136Z,36.57
2023-06-07T07:21:53.208Z,36.56
2023-06-07T07:22:53.120Z,36.61
2023-06-07T07:23:53.165Z,36.68
2023-06-07T07:24:53.306Z,36.60
2023-06-07T07:25:53.114Z,36.49
2023-06-07T07:26:53.147Z,36.59
2023-06-07T07:27:53.125Z,36.49
2023-06-07T07:28:53.205Z,36.59
2023-06-07T07:29:53.183Z,36.59
2023-06-07T07:30:53.679Z,36.82
2023-06-07T07:31:53.258Z,36.84
2023-06-07T07:32:53.322Z,36.80
2023-06-07T07:33:53.308Z,36.61
2023-06-07T07:34:53.455Z,36.67
2023-06-07T07:35:53.407Z,36.61
2023-06-07T07:36:53.712Z,36.51
2023-06-07T07:37:53.481Z,36.14
2023-06-07T07:38:53.475Z,36.01
2023-06-07T07:39:53.583Z,36.03
2023-06-07T07:40:53.520Z,36.05
2023-06-07T07:41:53.547Z,36.11
2023-06-07T07:42:53.518Z,36.19
2023-06-07T07:43:53.511Z,36.09
2023-06-07T07:44:53.526Z,36.23
2023-06-07T07:45:53.528Z,36.26
2023-06-07T07:46:53.534Z,36.27
2023-06-07T07:47:53.658Z,36.23
2023-06-07T07:48:53.578Z,35.94
2023-06-07T07:49:53.636Z,35.76
2023-06-07T07:50:53.581Z,35.44
2023-06-07T07:51:56.318Z,35.09
2023-06-07T07:52:53.612Z,35.19
2023-06-07T07:53:53.675Z,35.20
2023-06-07T07:54:53.776Z,35.18
2023-06-07T07:55:53.570Z,35.03
2023-06-07T07:56:53.571Z,34.82
2023-06-07T07:57:53.698Z,34.90
2023-06-07T07:58:53.536Z,34.93
2023-06-07T07:59:53.590Z,34.91
2023-06-07T08:00:53.573Z,34.88
2023-06-07T08:01:53.562Z,34.71
2023-06-07T08:02:53.606Z,34.71
2023-06-07T08:03:53.677Z,34.60
2023-06-07T08:04:53.561Z,34.71
2023-06-07T08:05:53.549Z,34.62
2023-06-07T08:06:53.515Z,34.64
2023-06-07T08:07:53.520Z,34.84
2023-06-07T08:08:53.493Z,34.77
2023-06-07T08:09:53.492Z,34.77
2023-06-07T08:10:53.483Z,34.64
2023-06-07T08:11:53.504Z,34.78
2023-06-07T08:12:53.456Z,34.96
2023-06-07T08:13:53.462Z,34.92
2023-06-07T08:14:53.429Z,34.61
2023-06-07T08:15:53.467Z,34.62
2023-06-07T08:16:53.483Z,34.43
2023-06-07T08:17:53.458Z,34.39
2023-06-07T08:18:53.469Z,34.56
2023-06-07T08:19:53.396Z,34.50
2023-06-07T08:20:53.406Z,34.58
2023-06-07T08:21:53.401Z,34.53
2023-06-07T08:22:53.371Z,34.44
2023-06-07T08:23:53.436Z,34.56
2023-06-07T08:24:53.440Z,34.73
2023-06-07T08:25:53.406Z,34.87
2023-06-07T08:26:53.417Z,34.82
2023-06-07T08:27:53.394Z,34.83
2023-06-07T08:28:53.392Z,34.74
2023-06-07T08:29:53.395Z,34.75
2023-06-07T08:30:53.385Z,34.77
2023-06-07T08:31:53.449Z,34.76
2023-06-07T08:32:53.384Z,34.77
2023-06-07T08:33:53.319Z,34.72
2023-06-07T08:34:53.365Z,34.70
2023-06-07T08:35:53.420Z,34.72
2023-06-07T08:36:53.336Z,34.71
2023-06-07T08:37:53.314Z,34.69
2023-06-07T08:38:53.312Z,34.66
2023-06-07T08:39:53.298Z,34.75
2023-06-07T08:40:53.276Z,34.63
2023-06-07T08:41:53.292Z,34.70
2023-06-07T08:42:53.344Z,34.75
2023-06-07T08:43:53.281Z,34.84
2023-06-07T08:44:53.308Z,35.05
2023-06-07T08:45:53.337Z,34.72
2023-06-07T08:46:53.234Z,34.68
2023-06-07T08:47:53.322Z,34.65
2023-06-07T08:48:53.751Z,34.72
2023-06-07T08:49:53.219Z,35.06
2023-06-07T08:50:53.220Z,35.11
2023-06-07T08:52:03.116Z,35.43
2023-06-07T08:52:54.202Z,35.48
2023-06-07T08:53:53.217Z,35.55
2023-06-07T08:54:53.221Z,35.70
2023-06-07T08:55:53.252Z,35.85
2023-06-07T08:56:53.249Z,35.87
2023-06-07T08:57:53.164Z,35.97
2023-06-07T08:58:53.179Z,35.92
2023-06-07T08:59:53.196Z,36.09
2023-06-07T09:00:53.245Z,36.13
2023-06-07T09:01:53.313Z,36.12
2023-06-07T09:02:53.406Z,36.19
2023-06-07T09:03:53.485Z,36.27
2023-06-07T09:04:53.462Z,36.19
2023-06-07T09:05:53.497Z,36.19
2023-06-07T09:06:53.585Z,36.40
2023-06-07T09:07:53.636Z,36.26
2023-06-07T09:08:53.688Z,36.45
2023-06-07T09:09:53.727Z,36.45
2023-06-07T09:10:53.771Z,36.39
2023-06-07T09:11:53.871Z,36.55
2023-06-07T09:12:53.912Z,36.47
2023-06-07T09:13:53.900Z,36.35
2023-06-07T09:14:53.957Z,36.36
2023-06-07T09:15:54.058Z,36.42
2023-06-07T09:16:54.168Z,36.38
2023-06-07T09:17:54.190Z,36.38
2023-06-07T09:18:54.203Z,36.41
2023-06-07T09:19:54.225Z,36.45
2023-06-07T09:20:54.205Z,36.48
2023-06-07T09:21:54.262Z,36.50
2023-06-07T09:22:54.307Z,36.41
2023-06-07T09:23:54.454Z,36.48
2023-06-07T09:24:54.427Z,36.34
2023-06-07T09:25:54.493Z,36.32
2023-06-07T09:26:54.484Z,36.36
2023-06-07T09:27:54.500Z,36.37
2023-06-07T09:28:54.541Z,36.45
2023-06-07T09:29:54.651Z,36.45
2023-06-07T09:30:54.935Z,36.56
2023-06-07T09:31:54.974Z,36.70
2023-06-07T09:32:54.690Z,36.76
2023-06-07T09:33:54.829Z,36.39
2023-06-07T09:34:54.746Z,36.46
2023-06-07T09:35:54.783Z,36.36
2023-06-07T09:36:54.938Z,36.20
2023-06-07T09:37:54.890Z,36.18
2023-06-07T09:38:54.889Z,36.00
2023-06-07T09:39:54.929Z,36.04
2023-06-07T09:40:54.978Z,36.01
2023-06-07T09:41:55.009Z,35.90
2023-06-07T09:42:54.997Z,35.87
2023-06-07T09:43:54.985Z,35.82
2023-06-07T09:44:55.000Z,35.59
2023-06-07T09:45:54.985Z,35.56
2023-06-07T09:46:55.030Z,35.53
2023-06-07T09:47:55.045Z,35.45
2023-06-07T09:48:55.207Z,35.38
2023-06-07T09:49:55.056Z,35.27
2023-06-07T09:50:55.037Z,35.27
2023-06-07T09:51:55.096Z,35.20
2023-06-07T09:52:55.093Z,35.22
2023-06-07T09:53:55.356Z,34.85
2023-06-07T09:54:55.062Z,34.97
2023-06-07T09:55:55.097Z,34.95
2023-06-07T09:56:55.146Z,34.81
2023-06-07T09:57:55.131Z,34.77
2023-06-07T09:58:55.131Z,34.57
2023-06-07T09:59:55.091Z,34.45
2023-06-07T10:00:55.106Z,34.57
2023-06-07T10:01:55.189Z,34.36
2023-06-07T10:02:55.169Z,34.32
2023-06-07T10:03:55.104Z,34.11
2023-06-07T10:04:57.362Z,34.27
2023-06-07T10:05:55.122Z,34.03
2023-06-07T10:06:55.065Z,34.02
2023-06-07T10:07:55.348Z,34.01
2023-06-07T10:08:55.043Z,33.97
2023-06-07T10:09:55.088Z,33.90
2023-06-07T10:10:55.077Z,33.69
2023-06-07T10:11:55.059Z,33.56
2023-06-07T10:12:55.233Z,33.55
2023-06-07T10:13:55.093Z,33.68
2023-06-07T10:14:55.067Z,33.25
2023-06-07T10:15:55.025Z,33.15
2023-06-07T10:16:55.076Z,33.21
2023-06-07T10:17:55.047Z,33.21
2023-06-07T10:18:54.975Z,33.18
2023-06-07T10:19:55.073Z,33.11
2023-06-07T10:20:55.069Z,33.13
2023-06-07T10:21:55.016Z,33.02
2023-06-07T10:22:55.315Z,33.01
2023-06-07T10:23:55.076Z,32.99
2023-06-07T10:24:55.103Z,33.08
2023-06-07T10:25:54.972Z,32.75
2023-06-07T10:26:54.983Z,32.95
2023-06-07T10:27:55.009Z,33.02
2023-06-07T10:28:54.988Z,33.08
2023-06-07T10:29:54.923Z,33.04
2023-06-07T10:30:54.948Z,32.62
2023-06-07T10:31:55.394Z,32.93
2023-06-07T10:32:55.459Z,31.83
2023-06-07T10:33:55.009Z,31.47
2023-06-07T10:34:54.967Z,31.16
2023-06-07T10:35:54.907Z,31.39
2023-06-07T10:36:54.877Z,31.29
2023-06-07T10:37:55.358Z,31.41
2023-06-07T10:38:54.941Z,31.46
2023-06-07T10:39:54.848Z,31.41
2023-06-07T10:40:54.850Z,31.47
2023-06-07T10:41:54.930Z,31.61
2023-06-07T10:42:54.886Z,31.68
2023-06-07T10:43:54.854Z,31.62
2023-06-07T10:44:54.836Z,31.60
2023-06-07T10:45:55.016Z,31.62
2023-06-07T10:46:54.967Z,31.67
2023-06-07T10:47:54.958Z,31.62
2023-06-07T10:48:54.960Z,31.74
2023-06-07T10:49:54.989Z,31.73
2023-06-07T10:50:55.076Z,31.89
2023-06-07T10:51:54.973Z,31.90
2023-06-07T10:52:54.985Z,31.92
2023-06-07T10:53:55.029Z,31.98
2023-06-07T10:54:55.100Z,31.89
2023-06-07T10:55:55.109Z,32.00
2023-06-07T10:56:55.124Z,32.08
2023-06-07T10:57:55.144Z,32.06
2023-06-07T10:58:55.154Z,32.02
2023-06-07T10:59:55.135Z,32.12
2023-06-07T11:00:55.398Z,32.17
2023-06-07T11:01:55.273Z,32.15
2023-06-07T11:02:55.360Z,32.06
2023-06-07T11:03:55.454Z,32.11
2023-06-07T11:04:55.344Z,32.01
2023-06-07T11:05:55.494Z,32.10
2023-06-07T11:06:55.341Z,32.06
2023-06-07T11:07:55.401Z,32.19
2023-06-07T11:08:55.662Z,32.21
2023-06-07T11:09:55.401Z,32.55
2023-06-07T11:10:55.370Z,32.16
2023-06-07T11:11:55.340Z,32.10
2023-06-07T11:12:55.464Z,32.01
2023-06-07T11:13:55.421Z,31.93
2023-06-07T11:14:55.525Z,31.80
2023-06-07T11:15:55.507Z,31.50
2023-06-07T11:16:55.527Z,31.24
2023-06-07T11:17:55.578Z,31.22
2023-06-07T11:18:55.458Z,31.09
2023-06-07T11:19:55.591Z,30.58
2023-06-07T11:20:55.547Z,30.69
2023-06-07T11:21:55.593Z,30.65
2023-06-07T11:22:55.560Z,30.55
2023-06-07T11:23:55.661Z,30.44
2023-06-07T11:24:55.565Z,30.36
2023-06-07T11:25:55.681Z,30.31
2023-06-07T11:26:55.647Z,30.24
2023-06-07T11:27:55.703Z,29.96
2023-06-07T11:28:55.693Z,29.85
2023-06-07T11:29:55.712Z,29.85
2023-06-07T11:30:56.551Z,29.73
2023-06-07T11:31:55.810Z,29.81
2023-06-07T11:32:55.765Z,29.71
2023-06-07T11:33:56.392Z,29.69
2023-06-07T11:34:55.883Z,29.70
2023-06-07T11:35:55.867Z,29.58
2023-06-07T11:36:55.856Z,29.51
2023-06-07T11:37:55.877Z,29.37
2023-06-07T11:38:55.912Z,29.25
2023-06-07T11:39:55.931Z,29.28
2023-06-07T11:40:55.913Z,29.28
2023-06-07T11:41:56.035Z,29.31
2023-06-07T11:42:55.992Z,29.20
2023-06-07T11:43:56.007Z,29.20
2023-06-07T11:44:56.027Z,29.13
2023-06-07T11:45:56.080Z,29.14
2023-06-07T11:46:56.114Z,29.18
2023-06-07T11:47:58.817Z,29.10
2023-06-07T11:48:56.120Z,29.12
2023-06-07T11:49:56.081Z,29.10
2023-06-07T11:50:56.039Z,29.13
2023-06-07T11:51:56.052Z,29.09
2023-06-07T11:52:56.054Z,29.18
2023-06-07T11:53:56.008Z,29.01
2023-06-07T11:54:56.017Z,29.07
2023-06-07T11:55:56.022Z,29.12
2023-06-07T11:56:56.093Z,29.11
2023-06-07T11:57:55.985Z,29.08
2023-06-07T11:58:55.998Z,29.03
2023-06-07T11:59:56.058Z,29.13
2023-06-07T12:00:56.039Z,29.23
2023-06-07T12:01:56.155Z,29.22
2023-06-07T12:02:56.053Z,29.35
2023-06-07T12:03:56.092Z,29.31
2023-06-07T12:04:56.007Z,29.43
2023-06-07T12:05:55.963Z,29.51
2023-06-07T12:06:55.942Z,29.51
2023-06-07T12:07:56.946Z,29.56
2023-06-07T12:08:56.004Z,29.58
2023-06-07T12:09:56.399Z,29.60
2023-06-07T12:10:56.118Z,29.63
2023-06-07T12:11:56.395Z,29.70
2023-06-07T12:12:55.942Z,29.72
2023-06-07T12:13:55.891Z,29.75
2023-06-07T12:14:55.896Z,29.82
2023-06-07T12:15:55.953Z,29.86
2023-06-07T12:16:55.956Z,29.87
2023-06-07T12:17:55.909Z,29.95
2023-06-07T12:18:55.877Z,29.95
2023-06-07T12:19:57.679Z,30.01
2023-06-07T12:20:55.970Z,30.03
2023-06-07T12:21:55.890Z,30.07
2023-06-07T12:22:55.936Z,30.10
2023-06-07T12:23:55.955Z,30.13
2023-06-07T12:24:55.826Z,30.18
2023-06-07T12:25:55.845Z,30.22
2023-06-07T12:26:55.861Z,30.22
2023-06-07T12:27:55.843Z,30.25
2023-06-07T12:28:55.787Z,30.32
2023-06-07T12:29:55.796Z,30.35
2023-06-07T12:30:55.819Z,30.39
2023-06-07T12:31:55.808Z,30.43
2023-06-07T12:32:55.799Z,30.45
2023-06-07T12:33:55.753Z,30.47
2023-06-07T12:34:55.793Z,30.47
2023-06-07T12:35:55.756Z,30.52
2023-06-07T12:36:55.736Z,30.56
2023-06-07T12:37:55.734Z,30.59
2023-06-07T12:38:55.798Z,30.60
2023-06-07T12:39:55.778Z,30.61
2023-06-07T12:40:55.753Z,30.68
2023-06-07T12:41:55.732Z,30.70
2023-06-07T12:42:55.737Z,30.72
2023-06-07T12:43:55.763Z,30.75
2023-06-07T12:44:56.109Z,30.77
2023-06-07T12:45:55.690Z,30.76
2023-06-07T12:46:55.754Z,30.79
2023-06-07T12:47:55.764Z,30.84
2023-06-07T12:48:55.657Z,30.84
2023-06-07T12:49:55.698Z,30.87
2023-06-07T12:50:55.688Z,30.89
2023-06-07T12:51:55.690Z,30.92
2023-06-07T12:52:55.679Z,30.94